createdAt,value
2023-02-02T00:00:36.190Z,132.75
2023-02-02T00:03:04.720Z,120.97
2023-02-02T00:05:34.438Z,120.78
2023-02-02T00:08:02.312Z,111.70
2023-02-02T00:10:30.374Z,119.45
2023-02-02T00:13:00.045Z,119.93
2023-02-02T00:15:27.668Z,118.50
2023-02-02T00:17:55.457Z,123.00
2023-02-02T00:20:25.156Z,117.25
2023-02-02T00:22:52.761Z,121.40
2023-02-02T00:25:20.454Z,110.57
2023-02-02T00:27:50.180Z,123.28
2023-02-02T00:30:18.513Z,112.13
2023-02-02T00:32:46.486Z,122.07
2023-02-02T00:35:16.222Z,116.00
2023-02-02T00:37:43.806Z,120.00
2023-02-02T00:40:12.201Z,122.85
2023-02-02T00:42:42.103Z,124.72
2023-02-02T00:45:09.822Z,125.50
2023-02-02T00:47:37.851Z,115.80
2023-02-02T00:50:07.585Z,124.40
2023-02-02T00:52:35.168Z,131.35
2023-02-02T00:55:02.863Z,131.48
2023-02-02T00:57:32.853Z,141.98
2023-02-02T01:00:00.441Z,138.88
2023-02-02T01:02:28.463Z,143.15
2023-02-02T01:04:58.264Z,141.73
2023-02-02T01:07:25.849Z,135.73
2023-02-02T01:09:53.556Z,137.95
2023-02-02T01:12:23.547Z,131.25
2023-02-02T01:14:51.267Z,142.88
2023-02-02T01:17:19.148Z,141.13
2023-02-02T01:19:47.801Z,133.05
2023-02-02T01:22:15.392Z,134.02
2023-02-02T01:24:43.428Z,128.48
2023-02-02T01:27:13.138Z,126.47
2023-02-02T01:29:40.724Z,130.43
2023-02-02T01:32:09.140Z,125.30
2023-02-02T01:34:37.927Z,132.30
2023-02-02T01:37:05.698Z,130.93
2023-02-02T01:39:34.359Z,128.60
2023-02-02T01:42:04.109Z,137.68
2023-02-02T01:44:31.800Z,133.27
2023-02-02T01:46:59.844Z,132.13
2023-02-02T01:49:29.595Z,125.43
2023-02-02T01:51:57.113Z,120.85
2023-02-02T01:54:28.422Z,126.45
2023-02-02T01:56:58.306Z,124.15
2023-02-02T01:59:25.870Z,117.38
2023-02-02T02:01:53.658Z,111.40
2023-02-02T02:04:23.500Z,117.18
2023-02-02T02:06:51.238Z,113.88
2023-02-02T02:09:18.966Z,111.22
2023-02-02T02:11:48.781Z,112.95
2023-02-02T02:14:16.426Z,108.18
2023-02-02T02:16:46.984Z,108.25
2023-02-02T02:19:17.267Z,105.90
2023-02-02T02:21:45.164Z,109.88
2023-02-02T02:24:14.175Z,105.78
2023-02-02T02:26:44.050Z,101.07
2023-02-02T02:29:11.729Z,98.25
2023-02-02T02:31:39.328Z,107.97
2023-02-02T02:34:09.261Z,109.22
2023-02-02T02:36:37.367Z,113.28
2023-02-02T02:39:04.840Z,103.40
2023-02-02T02:41:34.778Z,110.25
2023-02-02T02:44:02.643Z,101.78
2023-02-02T02:46:30.405Z,107.40
2023-02-02T02:49:00.182Z,86.63
2023-02-02T02:51:28.735Z,90.50
2023-02-02T02:53:56.363Z,89.68
2023-02-02T02:56:26.229Z,81.32
2023-02-02T02:58:53.955Z,84.85
2023-02-02T03:01:21.677Z,88.55
2023-02-02T03:03:51.531Z,90.57
2023-02-02T03:06:19.240Z,92.70
2023-02-02T03:08:47.356Z,95.65
2023-02-02T03:11:17.129Z,89.13
2023-02-02T03:13:45.564Z,83.35
2023-02-02T03:16:13.190Z,73.00
2023-02-02T03:18:43.080Z,79.90
2023-02-02T03:21:10.842Z,81.18
2023-02-02T03:23:38.405Z,82.90
2023-02-02T03:26:08.206Z,82.95
2023-02-02T03:28:36.447Z,80.90
2023-02-02T03:31:04.023Z,82.05
2023-02-02T03:33:34.114Z,72.65
2023-02-02T03:36:01.901Z,69.30
2023-02-02T03:38:29.596Z,67.72
2023-02-02T03:40:59.422Z,68.30
2023-02-02T03:43:27.276Z,70.68
2023-02-02T03:45:54.844Z,77.20
2023-02-02T03:48:24.749Z,68.13
2023-02-02T03:50:52.508Z,68.68
2023-02-02T03:53:20.273Z,72.13
2023-02-02T03:55:50.029Z,72.20
2023-02-02T03:58:18.230Z,71.45
2023-02-02T04:00:45.748Z,63.55
2023-02-02T04:03:15.513Z,60.42
2023-02-02T04:05:43.286Z,62.78
2023-02-02T04:08:10.908Z,60.72
2023-02-02T04:10:40.826Z,57.78
2023-02-02T04:13:09.282Z,57.00
2023-02-02T04:15:36.845Z,57.28
2023-02-02T04:18:08.211Z,57.67
2023-02-02T04:20:36.491Z,52.83
2023-02-02T04:23:04.044Z,51.72
2023-02-02T04:25:34.504Z,44.92
2023-02-02T04:28:02.238Z,43.30
2023-02-02T04:30:29.890Z,51.13
2023-02-02T04:32:58.864Z,45.50
2023-02-02T04:35:27.356Z,44.70
2023-02-02T04:37:54.953Z,46.25
2023-02-02T04:40:24.736Z,46.33
2023-02-02T04:42:52.409Z,48.03
2023-02-02T04:45:19.976Z,51.92
2023-02-02T04:47:49.720Z,51.35
2023-02-02T04:50:18.391Z,50.20
2023-02-02T04:52:45.958Z,44.13
2023-02-02T04:55:16.350Z,45.05
2023-02-02T04:57:44.842Z,42.38
2023-02-02T05:00:12.437Z,39.00
2023-02-02T05:02:42.310Z,37.35
2023-02-02T05:05:10.134Z,32.33
2023-02-02T05:07:37.720Z,37.15
2023-02-02T05:10:07.499Z,36.55
2023-02-02T05:12:35.379Z,40.10
2023-02-02T05:15:03.559Z,38.53
2023-02-02T05:17:33.462Z,37.42
2023-02-02T05:20:02.192Z,39.80
2023-02-02T05:22:29.692Z,40.10
2023-02-02T05:24:59.548Z,44.28
2023-02-02T05:27:27.426Z,40.33
2023-02-02T05:29:54.935Z,37.95
2023-02-02T05:32:24.776Z,39.50
2023-02-02T05:34:52.387Z,36.88
2023-02-02T05:37:19.970Z,39.80
2023-02-02T05:39:49.653Z,39.25
2023-02-02T05:42:18.803Z,39.85
2023-02-02T05:44:46.393Z,38.47
2023-02-02T05:47:16.187Z,37.40
2023-02-02T05:49:44.559Z,35.88
2023-02-02T05:52:12.130Z,39.88
2023-02-02T05:54:39.756Z,41.20
2023-02-02T05:57:07.743Z,38.10
2023-02-02T05:59:35.266Z,39.30
2023-02-02T06:02:05.036Z,41.42
2023-02-02T06:04:32.697Z,36.78
2023-02-02T06:07:00.333Z,36.08
2023-02-02T06:09:30.086Z,36.80
2023-02-02T06:11:58.433Z,41.65
2023-02-02T06:14:25.943Z,34.30
2023-02-02T06:16:56.575Z,35.40
2023-02-02T06:19:25.164Z,31.83
2023-02-02T06:21:53.004Z,36.92
2023-02-02T06:24:37.339Z,39.25
2023-02-02T06:27:04.910Z,36.17
2023-02-02T06:29:32.600Z,37.45
2023-02-02T06:32:03.439Z,37.63
2023-02-02T06:34:31.040Z,34.55
2023-02-02T06:36:58.850Z,36.88
2023-02-02T06:39:28.844Z,37.13
2023-02-02T06:41:56.494Z,32.03
2023-02-02T06:44:24.889Z,33.03
2023-02-02T06:46:55.669Z,33.88
2023-02-02T06:49:24.245Z,31.52
2023-02-02T06:51:51.938Z,29.65
2023-02-02T06:54:22.672Z,33.05
2023-02-02T06:56:50.260Z,38.88
2023-02-02T06:59:17.858Z,31.85
2023-02-02T07:01:48.477Z,31.58
2023-02-02T07:04:16.085Z,32.42
2023-02-02T07:06:43.688Z,31.45
2023-02-02T07:09:13.525Z,29.00
2023-02-02T07:11:41.789Z,24.88
2023-02-02T07:14:12.527Z,28.17
2023-02-02T07:16:42.340Z,28.08
2023-02-02T07:19:10.001Z,28.30
2023-02-02T07:21:37.707Z,34.78
2023-02-02T07:24:07.651Z,29.10
2023-02-02T07:26:35.237Z,28.95
2023-02-02T07:29:03.415Z,33.67
2023-02-02T07:31:36.534Z,36.08
2023-02-02T07:34:05.303Z,28.30
2023-02-02T07:36:32.859Z,25.98
2023-02-02T07:39:02.666Z,31.80
2023-02-02T07:41:30.419Z,28.30
2023-02-02T07:43:58.030Z,28.52
2023-02-02T07:46:28.221Z,30.15
2023-02-02T07:48:56.786Z,31.10
2023-02-02T07:51:24.356Z,26.42
2023-02-02T07:53:54.176Z,33.03
2023-02-02T07:56:22.830Z,26.42
2023-02-02T07:58:50.492Z,29.88
2023-02-02T08:01:20.549Z,28.67
2023-02-02T08:03:49.497Z,25.27
2023-02-02T08:06:17.079Z,26.08
2023-02-02T08:08:46.822Z,27.02
2023-02-02T08:11:14.387Z,26.67
2023-02-02T08:13:41.985Z,29.23
2023-02-02T08:16:09.661Z,27.48
2023-02-02T08:18:37.623Z,26.95
2023-02-02T08:21:05.208Z,26.30
2023-02-02T08:23:32.954Z,26.02
2023-02-02T08:26:01.023Z,31.92
2023-02-02T08:28:28.540Z,26.60
2023-02-02T08:30:56.253Z,22.77
2023-02-02T08:33:23.935Z,25.75
2023-02-02T08:35:51.537Z,25.27
2023-02-02T08:38:21.369Z,25.70
2023-02-02T08:40:49.494Z,27.58
2023-02-02T08:43:17.054Z,24.27
2023-02-02T08:46:13.438Z,25.77
2023-02-02T08:48:34.768Z,30.48
2023-02-02T08:51:04.744Z,27.67
2023-02-02T08:53:32.998Z,24.30
2023-02-02T08:56:01.483Z,27.60
2023-02-02T08:58:31.211Z,29.10
2023-02-02T09:00:58.820Z,25.08
2023-02-02T09:03:26.500Z,26.00
2023-02-02T09:05:54.172Z,24.83
2023-02-02T09:08:21.773Z,32.22
2023-02-02T09:10:49.616Z,255.80
2023-02-02T09:13:19.694Z,181.27
2023-02-02T09:15:48.209Z,35.90
2023-02-02T09:18:16.195Z,47.08
2023-02-02T09:20:43.950Z,33.40
2023-02-02T09:23:11.451Z,25.73
2023-02-02T09:25:39.509Z,25.38
2023-02-02T09:28:09.384Z,25.08
2023-02-02T09:30:37.081Z,26.40
2023-02-02T09:33:05.060Z,26.42
2023-02-02T09:35:33.992Z,24.58
2023-02-02T09:38:01.594Z,28.02
2023-02-02T09:40:29.347Z,29.50
2023-02-02T09:42:56.979Z,30.55
2023-02-02T09:45:24.924Z,31.02
2023-02-02T09:47:52.686Z,31.13
2023-02-02T09:50:20.292Z,27.65
2023-02-02T09:52:47.836Z,29.77
2023-02-02T09:55:15.506Z,31.77
2023-02-02T09:57:45.271Z,29.42
2023-02-02T10:00:12.961Z,26.67
2023-02-02T10:02:41.118Z,27.95
2023-02-02T10:05:08.814Z,23.80
2023-02-02T10:07:36.418Z,25.10
2023-02-02T10:10:04.292Z,27.83
2023-02-02T10:12:34.664Z,25.77
2023-02-02T10:15:02.349Z,29.98
2023-02-02T10:17:30.091Z,32.30
2023-02-02T10:19:57.960Z,37.92
2023-02-02T10:22:25.530Z,31.48
2023-02-02T10:24:53.330Z,37.90
2023-02-02T10:27:23.104Z,38.42
2023-02-02T10:29:50.872Z,33.05
2023-02-02T10:32:19.948Z,32.80
2023-02-02T10:34:50.344Z,26.30
2023-02-02T10:37:18.788Z,27.60
2023-02-02T10:39:46.602Z,31.65
2023-02-02T10:42:16.623Z,26.90
2023-02-02T10:44:44.217Z,30.55
2023-02-02T10:47:12.328Z,26.45
2023-02-02T10:49:40.009Z,31.13
2023-02-02T10:52:07.554Z,32.78
2023-02-02T10:54:50.049Z,27.27
2023-02-02T10:57:25.019Z,26.58
2023-02-02T10:59:53.053Z,28.00
2023-02-02T11:02:21.452Z,30.35
2023-02-02T11:04:49.255Z,28.40
2023-02-02T11:07:17.081Z,40.10
2023-02-02T11:09:44.606Z,35.25
2023-02-02T11:12:12.269Z,35.85
2023-02-02T11:14:45.052Z,38.75
2023-02-02T11:17:15.653Z,36.72
2023-02-02T11:19:43.227Z,37.97
2023-02-02T11:22:10.759Z,46.88
2023-02-02T11:24:38.418Z,43.55
2023-02-02T11:27:06.346Z,46.42
2023-02-02T11:29:34.168Z,52.72
2023-02-02T11:32:03.959Z,40.05
2023-02-02T11:34:31.842Z,40.00
2023-02-02T11:36:59.546Z,45.65
2023-02-02T11:39:29.349Z,38.67
2023-02-02T11:41:56.959Z,40.10
2023-02-02T11:44:24.511Z,47.75
2023-02-02T11:46:54.359Z,41.70
2023-02-02T11:49:22.212Z,56.75
2023-02-02T11:51:49.811Z,50.38
2023-02-02T11:54:19.565Z,51.17
2023-02-02T11:56:47.453Z,70.32
2023-02-02T11:59:15.079Z,75.55
2023-02-02T12:01:42.858Z,80.65
2023-02-02T12:04:10.789Z,69.25
2023-02-02T12:06:38.290Z,69.05
2023-02-02T12:09:08.000Z,63.55
2023-02-02T12:11:35.793Z,54.80
2023-02-02T12:14:03.393Z,53.78
2023-02-02T12:16:33.316Z,49.55
2023-02-02T12:19:01.169Z,55.97
2023-02-02T12:21:28.641Z,50.28
2023-02-02T12:23:57.660Z,56.50
2023-02-02T12:26:25.378Z,55.60
2023-02-02T12:28:52.938Z,62.75
2023-02-02T12:31:20.643Z,58.40
2023-02-02T12:33:48.299Z,56.08
2023-02-02T12:36:15.870Z,58.13
2023-02-02T12:38:45.731Z,55.78
2023-02-02T12:41:13.758Z,55.35
2023-02-02T12:43:41.339Z,56.63
2023-02-02T12:46:11.708Z,55.42
2023-02-02T12:48:41.286Z,57.63
2023-02-02T12:51:08.850Z,60.15
2023-02-02T12:53:38.612Z,56.88
2023-02-02T12:56:09.127Z,57.50
2023-02-02T12:58:36.662Z,70.90
2023-02-02T13:01:06.491Z,67.95
2023-02-02T13:03:34.363Z,66.40
2023-02-02T13:06:02.024Z,81.40
2023-02-02T13:08:31.799Z,86.60
2023-02-02T13:11:01.594Z,70.70
2023-02-02T13:13:29.507Z,60.92
2023-02-02T13:15:57.700Z,56.58
2023-02-02T13:18:25.361Z,62.08
2023-02-02T13:20:52.937Z,61.45
2023-02-02T13:23:23.482Z,64.72
2023-02-02T13:25:51.232Z,59.03
2023-02-02T13:28:20.756Z,65.55
2023-02-02T13:30:50.726Z,65.70
2023-02-02T13:33:20.591Z,58.13
2023-02-02T13:35:48.248Z,62.63
2023-02-02T13:38:18.039Z,62.85
2023-02-02T13:40:45.845Z,58.00
2023-02-02T13:43:13.601Z,56.38
2023-02-02T13:45:43.414Z,55.25
2023-02-02T13:48:11.487Z,61.28
2023-02-02T13:50:39.078Z,69.72
2023-02-02T13:53:08.914Z,64.70
2023-02-02T13:55:36.561Z,54.60
2023-02-02T13:58:04.166Z,49.90
2023-02-02T14:00:33.992Z,42.45
2023-02-02T14:03:01.606Z,50.63
2023-02-02T14:05:29.261Z,41.78
2023-02-02T14:07:59.044Z,48.22
2023-02-02T14:10:26.979Z,51.40
2023-02-02T14:12:54.641Z,49.30
2023-02-02T14:15:24.791Z,52.67
2023-02-02T14:17:52.620Z,59.88
2023-02-02T14:20:20.265Z,55.13
2023-02-02T14:22:50.503Z,57.70
2023-02-02T14:25:18.470Z,64.75
2023-02-02T14:27:46.203Z,55.60
2023-02-02T14:30:16.202Z,49.92
2023-02-02T14:32:44.063Z,54.75
2023-02-02T14:35:13.485Z,60.05
2023-02-02T14:37:43.429Z,56.70
2023-02-02T14:40:11.112Z,58.78
2023-02-02T14:42:38.794Z,62.90
2023-02-02T14:45:08.693Z,54.78
2023-02-02T14:47:36.470Z,58.95
2023-02-02T14:50:06.266Z,62.15
2023-02-02T14:52:33.824Z,57.22
2023-02-02T14:55:01.425Z,51.22
2023-02-02T14:57:34.120Z,51.22
2023-02-02T15:00:01.978Z,52.80
2023-02-02T15:02:29.681Z,52.30
2023-02-02T15:04:59.551Z,53.22
2023-02-02T15:07:27.930Z,47.22
2023-02-02T15:09:55.832Z,53.78
2023-02-02T15:12:25.650Z,55.05
2023-02-02T15:14:54.434Z,54.80
2023-02-02T15:17:22.276Z,51.70
2023-02-02T15:19:49.933Z,47.40
2023-02-02T15:22:19.562Z,52.35
2023-02-02T15:24:47.111Z,49.05
2023-02-02T15:27:16.577Z,55.72
2023-02-02T15:29:44.191Z,50.08
2023-02-02T15:32:11.743Z,50.47
2023-02-02T15:34:41.493Z,47.28
2023-02-02T15:37:09.152Z,48.40
2023-02-02T15:39:36.829Z,50.88
2023-02-02T15:42:06.715Z,47.33
2023-02-02T15:44:34.313Z,51.78
2023-02-02T15:47:01.920Z,53.85
2023-02-02T15:49:34.709Z,51.97
2023-02-02T15:52:02.858Z,48.10
2023-02-02T15:54:32.559Z,45.47
2023-02-02T15:57:00.123Z,47.63
2023-02-02T15:59:27.911Z,49.25
2023-02-02T16:01:57.726Z,46.08
2023-02-02T16:04:25.482Z,49.30
2023-02-02T16:06:53.262Z,45.25
2023-02-02T16:09:22.957Z,45.33
2023-02-02T16:11:50.728Z,46.10
2023-02-02T16:14:18.397Z,48.15
2023-02-02T16:16:48.162Z,46.30
2023-02-02T16:19:15.883Z,51.33
2023-02-02T16:21:43.503Z,55.63
2023-02-02T16:24:13.152Z,46.63
2023-02-02T16:26:40.815Z,46.50
2023-02-02T16:29:08.485Z,46.13
2023-02-02T16:31:38.315Z,55.05
2023-02-02T16:34:05.903Z,57.13
2023-02-02T16:36:33.787Z,61.25
2023-02-02T16:39:04.001Z,62.10
2023-02-02T16:41:31.569Z,63.60
2023-02-02T16:43:59.419Z,61.95
2023-02-02T16:46:27.049Z,64.90
2023-02-02T16:48:54.606Z,61.25
2023-02-02T16:51:22.316Z,61.20
2023-02-02T16:53:52.046Z,62.38
2023-02-02T16:56:19.929Z,60.13
2023-02-02T16:58:47.826Z,60.28
2023-02-02T17:01:17.614Z,63.92
2023-02-02T17:03:45.205Z,64.50
2023-02-02T17:06:12.814Z,61.08
2023-02-02T17:08:42.552Z,61.40
2023-02-02T17:11:10.123Z,57.88
2023-02-02T17:13:37.760Z,55.47
2023-02-02T17:16:07.455Z,67.20
2023-02-02T17:18:35.035Z,61.00
2023-02-02T17:21:02.803Z,64.82
2023-02-02T17:23:32.508Z,64.20
2023-02-02T17:26:00.113Z,62.92
2023-02-02T17:28:28.007Z,61.28
2023-02-02T17:30:55.753Z,58.47
2023-02-02T17:33:23.361Z,64.05
2023-02-02T17:35:55.403Z,64.40
2023-02-02T17:38:25.753Z,58.10
2023-02-02T17:40:53.365Z,59.30
2023-02-02T17:43:21.147Z,63.65
2023-02-02T17:45:49.798Z,61.30
2023-02-02T17:48:17.573Z,64.50
2023-02-02T17:50:45.116Z,56.58
2023-02-02T17:53:13.823Z,59.58
2023-02-02T17:55:41.420Z,56.00
2023-02-02T17:58:08.971Z,60.63
2023-02-02T18:00:38.769Z,56.78
2023-02-02T18:03:10.203Z,58.53
2023-02-02T18:05:43.464Z,61.20
2023-02-02T18:08:14.505Z,64.32
2023-02-02T18:10:45.476Z,66.63
2023-02-02T18:13:13.929Z,62.42
2023-02-02T18:15:42.034Z,62.13
2023-02-02T18:18:11.768Z,63.45
2023-02-02T18:20:39.523Z,65.00
2023-02-02T18:23:08.306Z,59.38
2023-02-02T18:25:38.200Z,62.20
2023-02-02T18:28:05.823Z,56.67
2023-02-02T18:30:33.699Z,67.22
2023-02-02T18:33:03.344Z,61.67
2023-02-02T18:35:31.092Z,65.20
2023-02-02T18:37:58.744Z,62.67
2023-02-02T18:40:28.459Z,55.20
2023-02-02T18:42:56.046Z,60.88
2023-02-02T18:45:23.868Z,62.58
2023-02-02T18:47:53.011Z,60.83
2023-02-02T18:50:20.682Z,58.15
2023-02-02T18:52:48.602Z,59.80
2023-02-02T18:55:16.191Z,60.97
2023-02-02T18:57:43.790Z,61.30
2023-02-02T19:00:11.636Z,58.05
2023-02-02T19:02:41.929Z,58.78
2023-02-02T19:05:09.473Z,64.97
2023-02-02T19:07:37.283Z,57.25
2023-02-02T19:10:06.946Z,57.33
2023-02-02T19:12:34.543Z,56.70
2023-02-02T19:15:02.325Z,57.25
2023-02-02T19:17:31.985Z,55.65
2023-02-02T19:19:59.551Z,56.47
2023-02-02T19:22:27.314Z,54.92
2023-02-02T19:24:57.019Z,52.78
2023-02-02T19:27:24.606Z,57.03
2023-02-02T19:29:52.495Z,58.45
2023-02-02T19:32:22.277Z,53.70
2023-02-02T19:34:49.853Z,53.20
2023-02-02T19:37:17.453Z,53.90
2023-02-02T19:39:47.148Z,57.28
2023-02-02T19:42:14.707Z,53.58
2023-02-02T19:44:42.525Z,49.80
2023-02-02T19:47:12.317Z,48.00
2023-02-02T19:49:39.922Z,49.47
2023-02-02T19:52:07.620Z,50.55
2023-02-02T19:54:37.361Z,50.53
2023-02-02T19:57:04.959Z,46.97
2023-02-02T19:59:32.733Z,51.45
2023-02-02T20:02:02.564Z,47.80
2023-02-02T20:04:30.151Z,50.38
2023-02-02T20:06:59.724Z,49.05
2023-02-02T20:09:29.663Z,47.78
2023-02-02T20:11:57.323Z,46.22
2023-02-02T20:14:25.150Z,47.78
2023-02-02T20:16:53.901Z,45.58
2023-02-02T20:19:22.459Z,47.88
2023-02-02T20:21:57.875Z,49.38
2023-02-02T20:24:25.462Z,49.65
2023-02-02T20:26:53.147Z,51.53
2023-02-02T20:29:23.137Z,49.97
2023-02-02T20:31:50.928Z,47.83
2023-02-02T20:34:20.747Z,47.83
2023-02-02T20:36:51.314Z,49.92
2023-02-02T20:39:18.811Z,48.67
2023-02-02T20:41:46.398Z,57.95
2023-02-02T20:44:16.260Z,62.13
2023-02-02T20:46:43.755Z,65.55
2023-02-02T20:49:11.348Z,60.67
2023-02-02T20:51:41.355Z,54.40
2023-02-02T20:54:08.952Z,58.70
2023-02-02T20:56:36.442Z,60.92
2023-02-02T20:59:07.392Z,55.90
2023-02-02T21:01:35.052Z,46.40
2023-02-02T21:04:02.714Z,43.80
2023-02-02T21:06:33.151Z,41.10
2023-02-02T21:09:00.824Z,39.00
2023-02-02T21:11:28.432Z,39.47
2023-02-02T21:13:58.441Z,40.42
2023-02-02T21:16:25.978Z,40.60
2023-02-02T21:18:53.512Z,37.97
2023-02-02T21:21:23.401Z,35.88
2023-02-02T21:23:50.943Z,39.13
2023-02-02T21:28:49.266Z,42.28
2023-02-02T21:31:18.356Z,39.55
2023-02-02T21:33:47.232Z,48.08
2023-02-02T21:36:17.206Z,48.53
2023-02-02T21:38:55.543Z,46.03
2023-02-02T21:41:37.696Z,43.10
2023-02-02T21:44:05.486Z,43.10
2023-02-02T21:46:33.105Z,40.97
2023-02-02T21:49:02.997Z,38.67
2023-02-02T21:51:30.989Z,40.50
2023-02-02T21:53:58.621Z,45.10
2023-02-02T21:56:28.367Z,41.15
2023-02-02T21:58:56.116Z,37.40
2023-02-02T22:01:23.808Z,35.20
2023-02-02T22:03:55.450Z,30.15
2023-02-02T22:06:23.302Z,32.60
2023-02-02T22:08:50.881Z,29.90
2023-02-02T22:11:20.656Z,27.27
2023-02-02T22:13:48.264Z,29.60
2023-02-02T22:16:15.922Z,26.73
2023-02-02T22:18:45.674Z,22.73
2023-02-02T22:21:13.356Z,23.70
2023-02-02T22:23:41.025Z,23.60
2023-02-02T22:26:08.750Z,23.90
2023-02-02T22:28:37.394Z,30.70
2023-02-02T22:31:05.199Z,23.50
2023-02-02T22:33:37.542Z,27.50
2023-02-02T22:36:05.694Z,26.40
2023-02-02T22:38:33.698Z,25.08
2023-02-02T22:41:01.367Z,26.63
2023-02-02T22:43:29.044Z,21.35
2023-02-02T22:45:56.639Z,22.02
2023-02-02T22:48:24.354Z,18.73
2023-02-02T22:50:52.215Z,20.77
2023-02-02T22:53:19.986Z,21.00
2023-02-02T22:55:49.579Z,23.42
2023-02-02T22:58:17.044Z,22.23
2023-02-02T23:01:05.440Z,18.02
2023-02-02T23:03:38.992Z,18.20
2023-02-02T23:06:19.146Z,26.80
2023-02-02T23:08:52.950Z,21.25
2023-02-02T23:11:25.063Z,20.35
2023-02-02T23:14:12.732Z,24.05
2023-02-02T23:17:02.298Z,22.40
2023-02-02T23:19:38.636Z,15.20
2023-02-02T23:22:09.352Z,15.48
2023-02-02T23:24:37.450Z,15.63
2023-02-02T23:27:09.506Z,14.15
2023-02-02T23:29:39.717Z,15.20
2023-02-02T23:32:07.568Z,14.75
2023-02-02T23:34:35.335Z,11.30
2023-02-02T23:37:05.140Z,18.40
2023-02-02T23:39:32.724Z,17.63
2023-02-02T23:42:01.316Z,30.10
2023-02-02T23:44:30.964Z,81.85
2023-02-02T23:46:58.660Z,103.70
2023-02-02T23:49:26.683Z,65.82
2023-02-02T23:51:56.488Z,43.65
2023-02-02T23:54:26.925Z,30.92
2023-02-02T23:56:54.697Z,22.77
2023-02-02T23:59:23.816Z,19.00
